Terminal Aerodrome Forecast
Issued by NWS

Home | Current Version | Previous Version | Text Only | Print | Product List | Glossary Off
Versions: 1 2 3 4 5 6 7 8 9 10 11 12 13 14 15

000
FTUS42 KMHX 281700
TAFOAJ
TAF
KOAJ 281729Z 2818/2918 25006KT P6SM SKC
     FM290300 23002KT P6SM SCT050
     FM290800 VRB02KT P6SM SCT020 BKN050
     FM291300 03004KT P6SM SCT035
      AMD LTD TO CLD VIS AND WIND=

USA.gov is the U.S. government's official web portal to all federal, state and local government web resources and services.